Jaohar Rima — 9LU2215 — position and weather

sailwx.info

Track history (hours):
 
Tides and Currents Weather Stations Pressure Air Temp Water Temp Dewpoint Dewpoint Depression Visibility Wind Speed Wind Dir Waves Ship Positions

Jaohar Rima

Last reported at 2018-Feb-23 12:13 UTC. Time now 2018-Feb-24 21:37 UTC.
Position N 35°59' W 005°29'.

Length 99 m; draft 7.1 m.

Type: Cargo ship. MMSI: 667001412.

Date/timePositionNaut miles runAvg speedWind from/ knotsBaromVisibWave heightAir tempDewpointWater temp
2018-Feb-23 12:13N 35°59' W 005°29'2 8.1
2018-Feb-23 12:00N 35°60' W 005°27'4 8.2
2018-Feb-23 11:31N 35°60' W 005°22'510.6
2018-Feb-23 11:00N 35°55' W 005°19'1 2.3
2018-Feb-23 10:28N 35°54' W 005°19'0 0.0
2018-Feb-23 09:58N 35°54' W 005°19'0 0.0
2018-Feb-23 09:28N 35°54' W 005°19'0 0.0
2018-Feb-23 08:58N 35°54' W 005°19'0 0.0
2018-Feb-23 08:28N 35°54' W 005°19'0 0.0
2018-Feb-23 07:58N 35°54' W 005°19'0 0.0
2018-Feb-23 07:28N 35°54' W 005°19'0 0.9
2018-Feb-23 07:01N 35°54' W 005°19'1 2.7
2018-Feb-23 06:31N 35°55' W 005°18'0 0.8
2018-Feb-23 06:00N 35°55' W 005°17'3 6.3
2018-Feb-23 05:31N 35°56' W 005°14'3 6.3
2018-Feb-23 05:00N 35°56' W 005°10'3 5.9
2018-Feb-23 04:25N 35°57' W 005°06'3 5.5
2018-Feb-23 03:51N 35°57' W 005°02'  
Track history (hours):
 
Tides and Currents Weather Stations Pressure Air Temp Water Temp Dewpoint Dewpoint Depression Visibility Wind Speed Wind Dir Waves Ship Positions

Jaohar Rima

Last reported at 2018-Feb-23 12:13 UTC. Time now 2018-Feb-24 21:37 UTC.
Position N 35°59' W 005°29'.

Length 99 m; draft 7.1 m.

Type: Cargo ship. MMSI: 667001412.

Date/timePositionNaut miles runAvg speedWind from/ knotsBaromVisibWave heightAir tempDewpointWater temp
2018-Feb-23 12:13N 35°59' W 005°29'2 8.1
2018-Feb-23 12:00N 35°60' W 005°27'4 8.2
2018-Feb-23 11:31N 35°60' W 005°22'510.6
2018-Feb-23 11:00N 35°55' W 005°19'1 2.3
2018-Feb-23 10:28N 35°54' W 005°19'0 0.0
2018-Feb-23 09:58N 35°54' W 005°19'0 0.0
2018-Feb-23 09:28N 35°54' W 005°19'0 0.0
2018-Feb-23 08:58N 35°54' W 005°19'0 0.0
2018-Feb-23 08:28N 35°54' W 005°19'0 0.0
2018-Feb-23 07:58N 35°54' W 005°19'0 0.0
2018-Feb-23 07:28N 35°54' W 005°19'0 0.9
2018-Feb-23 07:01N 35°54' W 005°19'1 2.7
2018-Feb-23 06:31N 35°55' W 005°18'0 0.8
2018-Feb-23 06:00N 35°55' W 005°17'3 6.3
2018-Feb-23 05:31N 35°56' W 005°14'3 6.3
2018-Feb-23 05:00N 35°56' W 005°10'3 5.9
2018-Feb-23 04:25N 35°57' W 005°06'3 5.5
2018-Feb-23 03:51N 35°57' W 005°02'  

Dump ship's entire track history